Time;durP1;ratioP1;P1;durP2;ratioP2;P2;SDS_P1;SDS_P2;PMS_P1;PMS_P2;Temp;Humidity;BMP_temperature;BMP_pressure;BME280_temperature;BME280_humidity;BME280_pressure;Samples;Min_cycle;Max_cycle;Signal;HPM_P1;HPM_P2
2021/03/23 00:01:00;;;;;;;16.43;14.93;;;7.00;99.90;;;;;;5132821;27;20795;-71
2021/03/23 00:03:28;;;;;;;17.10;15.30;;;7.00;99.90;;;;;;5132426;27;20980;-71
2021/03/23 00:05:56;;;;;;;15.30;14.17;;;7.00;99.90;;;;;;5132666;27;20455;-71
2021/03/23 00:08:26;;;;;;;16.60;14.90;;;7.10;99.90;;;;;;5132814;27;20818;-71
2021/03/23 00:10:54;;;;;;;18.07;16.20;;;7.00;99.90;;;;;;5122972;27;20445;-71
2021/03/23 00:13:20;;;;;;;19.80;17.10;;;7.10;99.90;;;;;;5112090;28;20496;-70
2021/03/23 00:15:47;;;;;;;17.70;16.13;;;7.10;99.90;;;;;;5111655;28;20453;-71
2021/03/23 00:18:14;;;;;;;16.80;15.00;;;7.10;99.90;;;;;;5111786;28;20848;-71
2021/03/23 00:20:41;;;;;;;18.87;15.37;;;7.20;99.90;;;;;;5111923;27;20449;-71
2021/03/23 00:23:09;;;;;;;18.20;16.50;;;7.00;99.90;;;;;;5111646;28;20442;-71
2021/03/23 00:25:35;;;;;;;18.47;16.50;;;7.00;99.90;;;;;;5111704;28;20445;-72
2021/03/23 00:28:02;;;;;;;18.93;17.10;;;7.10;99.90;;;;;;5111696;28;20498;-71
2021/03/23 00:30:28;;;;;;;16.60;15.10;;;7.10;99.90;;;;;;5111664;28;20930;-72
2021/03/23 00:32:55;;;;;;;19.13;15.03;;;7.20;99.90;;;;;;5111679;28;21767;-72
2021/03/23 00:35:21;;;;;;;17.50;15.70;;;7.10;99.90;;;;;;5111641;28;20445;-71
2021/03/23 00:37:50;;;;;;;18.23;16.53;;;7.20;99.90;;;;;;5111363;28;20850;-71
2021/03/23 00:40:20;;;;;;;18.20;16.47;;;7.10;99.90;;;;;;5111569;28;20695;-72
2021/03/23 00:42:46;;;;;;;17.93;16.37;;;7.20;99.90;;;;;;5111146;28;20461;-72
2021/03/23 00:45:13;;;;;;;17.77;15.97;;;7.10;99.90;;;;;;5111386;28;20453;-71
2021/03/23 00:47:39;;;;;;;16.13;14.33;;;7.10;99.90;;;;;;5111525;28;20445;-70
2021/03/23 00:50:07;;;;;;;17.33;15.60;;;7.20;99.90;;;;;;5111774;28;20441;-70
2021/03/23 00:52:33;;;;;;;16.83;15.33;;;7.20;99.90;;;;;;5111434;28;20477;-69
2021/03/23 00:55:00;;;;;;;17.20;15.57;;;7.20;99.90;;;;;;5111326;28;20463;-70
2021/03/23 00:57:27;;;;;;;19.50;16.40;;;7.10;99.90;;;;;;5111377;28;20437;-70
2021/03/23 00:59:53;;;;;;;19.77;16.90;;;7.00;99.90;;;;;;5111112;28;20799;-69
2021/03/23 01:02:19;;;;;;;17.03;15.53;;;7.10;99.90;;;;;;5111256;28;20445;-70
2021/03/23 01:04:45;;;;;;;16.97;15.57;;;7.20;99.90;;;;;;5111170;28;20444;-70
2021/03/23 01:07:12;;;;;;;16.57;15.27;;;7.10;99.90;;;;;;5111292;28;20934;-70
2021/03/23 01:09:38;;;;;;;18.33;16.63;;;7.20;99.90;;;;;;5111535;28;20828;-69
2021/03/23 01:12:07;;;;;;;16.00;14.50;;;7.10;99.90;;;;;;5130619;28;20445;-70
2021/03/23 01:14:35;;;;;;;17.33;15.53;;;7.10;99.90;;;;;;5131553;27;20542;-70
2021/03/23 01:17:01;;;;;;;17.87;15.87;;;7.10;99.90;;;;;;5131671;28;20476;-71
2021/03/23 01:19:27;;;;;;;16.67;15.10;;;7.20;99.90;;;;;;5131655;28;20459;-71
2021/03/23 01:21:53;;;;;;;18.43;16.73;;;7.10;99.90;;;;;;5131902;28;20449;-71
2021/03/23 01:24:19;;;;;;;17.67;16.07;;;7.10;99.90;;;;;;5131942;28;20436;-71
2021/03/23 01:26:46;;;;;;;22.10;17.93;;;7.10;99.90;;;;;;5131375;27;20857;-71
2021/03/23 01:29:12;;;;;;;17.17;15.40;;;7.10;99.90;;;;;;5131395;27;20505;-71
2021/03/23 01:31:39;;;;;;;18.20;16.43;;;7.10;99.90;;;;;;5131846;27;20786;-71
2021/03/23 01:34:05;;;;;;;18.77;16.80;;;7.00;99.90;;;;;;5131756;27;20476;-70
2021/03/23 01:36:31;;;;;;;19.20;17.50;;;7.10;99.90;;;;;;5131335;27;20452;-71
2021/03/23 01:38:58;;;;;;;19.90;18.00;;;7.10;99.90;;;;;;5131518;28;20444;-71
2021/03/23 01:41:25;;;;;;;18.13;16.53;;;7.10;99.90;;;;;;5131459;27;20977;-71
2021/03/23 01:43:52;;;;;;;17.40;15.70;;;7.10;99.90;;;;;;5131326;27;20460;-71
2021/03/23 01:46:40;;;;;;;19.67;17.37;;;7.10;99.90;;;;;;5131395;27;20471;-71
2021/03/23 01:49:11;;;;;;;19.17;17.40;;;7.10;99.90;;;;;;5131402;27;20459;-71
2021/03/23 01:51:38;;;;;;;18.83;17.03;;;7.10;99.90;;;;;;5131613;28;20447;-71
2021/03/23 01:54:09;;;;;;;20.60;18.47;;;7.10;99.90;;;;;;5132349;27;20478;-71
2021/03/23 01:56:36;;;;;;;18.40;16.57;;;7.20;99.90;;;;;;5135385;27;20448;-71
2021/03/23 01:59:04;;;;;;;18.67;17.07;;;7.10;99.90;;;;;;5134596;27;20950;-71
2021/03/23 02:01:31;;;;;;;19.63;17.50;;;7.10;99.90;;;;;;5134753;27;20992;-71
2021/03/23 02:03:58;;;;;;;22.97;19.93;;;7.10;99.90;;;;;;5134903;27;20468;-70
2021/03/23 02:06:35;;;;;;;20.80;18.90;;;7.10;99.90;;;;;;5134879;27;20457;-70
2021/03/23 02:09:03;;;;;;;18.97;17.17;;;7.10;99.90;;;;;;5134952;27;20444;-71
2021/03/23 02:11:31;;;;;;;19.43;17.47;;;7.10;99.90;;;;;;5119639;27;20448;-71
2021/03/23 02:13:58;;;;;;;21.30;18.97;;;7.10;99.90;;;;;;5113949;28;20480;-71
2021/03/23 02:16:24;;;;;;;22.17;19.77;;;7.10;99.90;;;;;;5113895;28;20483;-71
2021/03/23 02:18:51;;;;;;;25.37;22.57;;;7.10;99.90;;;;;;5114049;28;20458;-71
2021/03/23 02:21:19;;;;;;;23.03;20.10;;;6.90;99.90;;;;;;5114177;28;20444;-71
2021/03/23 02:23:47;;;;;;;24.63;22.00;;;7.00;99.90;;;;;;5114059;28;20450;-71
2021/03/23 02:26:16;;;;;;;23.43;20.40;;;7.00;99.90;;;;;;5113774;28;20453;-71
2021/03/23 02:28:52;;;;;;;27.80;21.90;;;7.00;99.90;;;;;;5114027;28;20450;-71
2021/03/23 02:31:19;;;;;;;23.40;20.93;;;6.90;99.90;;;;;;5113908;28;20452;-71
2021/03/23 02:33:45;;;;;;;23.93;21.73;;;7.00;99.90;;;;;;5113638;28;20481;-71
2021/03/23 02:36:12;;;;;;;26.23;23.43;;;6.90;99.90;;;;;;5113608;28;20445;-72
2021/03/23 02:38:39;;;;;;;30.87;22.10;;;7.00;99.90;;;;;;5114155;28;20448;-72
2021/03/23 02:41:05;;;;;;;27.43;23.30;;;6.90;99.90;;;;;;5113717;28;20559;-72
2021/03/23 02:43:31;;;;;;;28.20;23.77;;;6.90;99.90;;;;;;5113554;28;20438;-72
2021/03/23 02:45:57;;;;;;;26.23;23.33;;;7.00;99.90;;;;;;5113546;28;20455;-71
2021/03/23 02:48:24;;;;;;;23.77;21.10;;;6.90;99.90;;;;;;5113594;28;20451;-71
2021/03/23 02:50:50;;;;;;;28.40;22.77;;;6.90;99.90;;;;;;5113485;28;20448;-71
2021/03/23 02:53:16;;;;;;;32.10;25.23;;;6.90;99.90;;;;;;5113212;28;20489;-71
2021/03/23 02:55:45;;;;;;;29.07;25.97;;;6.90;99.90;;;;;;5113296;28;20448;-71
2021/03/23 02:58:11;;;;;;;28.33;23.50;;;6.80;99.90;;;;;;5113466;28;20456;-71
2021/03/23 03:00:37;;;;;;;29.03;25.30;;;6.90;99.90;;;;;;5113320;28;20452;-71
2021/03/23 03:03:03;;;;;;;28.73;24.33;;;6.90;99.90;;;;;;5113183;28;20891;-72
2021/03/23 03:05:30;;;;;;;31.20;24.90;;;6.90;99.90;;;;;;5112688;28;20974;-72
2021/03/23 03:07:56;;;;;;;27.27;24.30;;;6.80;99.90;;;;;;5112973;28;20449;-71
2021/03/23 03:10:22;;;;;;;29.20;25.80;;;6.80;99.90;;;;;;5118457;27;20442;-72
2021/03/23 03:12:49;;;;;;;30.27;25.77;;;6.80;99.90;;;;;;5133468;27;20808;-71
2021/03/23 03:15:16;;;;;;;29.37;24.83;;;6.90;99.90;;;;;;5133463;27;20673;-71
2021/03/23 03:17:42;;;;;;;29.57;24.80;;;6.80;99.90;;;;;;5133075;27;20476;-71
2021/03/23 03:20:10;;;;;;;30.17;27.00;;;6.80;99.90;;;;;;5133747;27;20783;-71
2021/03/23 03:22:37;;;;;;;27.07;24.30;;;6.80;99.90;;;;;;5133780;27;20441;-71
2021/03/23 03:25:05;;;;;;;27.83;23.80;;;6.90;99.90;;;;;;5133463;27;20452;-71
2021/03/23 03:27:31;;;;;;;35.47;25.27;;;6.80;99.90;;;;;;5133067;27;20454;-71
2021/03/23 03:29:58;;;;;;;28.13;21.77;;;6.80;99.90;;;;;;5133060;27;20448;-72
2021/03/23 03:32:24;;;;;;;29.77;24.30;;;6.80;99.90;;;;;;5133467;27;20527;-72
2021/03/23 03:34:50;;;;;;;26.00;22.77;;;6.80;99.90;;;;;;5133251;27;20447;-72
2021/03/23 03:37:17;;;;;;;28.73;24.40;;;6.90;99.90;;;;;;5133025;27;20448;-72
2021/03/23 03:39:43;;;;;;;29.80;25.90;;;6.90;99.90;;;;;;5132977;27;20454;-71
2021/03/23 03:42:09;;;;;;;29.57;24.00;;;6.80;99.90;;;;;;5133325;27;20468;-71
2021/03/23 03:44:36;;;;;;;28.77;24.10;;;6.90;99.90;;;;;;5133033;27;20436;-71
2021/03/23 03:47:04;;;;;;;25.97;22.30;;;6.80;99.90;;;;;;5132925;27;20447;-71
2021/03/23 03:49:30;;;;;;;26.50;23.80;;;6.90;99.90;;;;;;5132948;27;20463;-71
2021/03/23 03:51:56;;;;;;;25.43;22.87;;;6.90;99.90;;;;;;5132553;27;20452;-71
2021/03/23 03:54:22;;;;;;;28.23;23.70;;;6.90;99.90;;;;;;5132931;27;20487;-71
2021/03/23 03:56:48;;;;;;;35.03;25.73;;;6.90;99.90;;;;;;5132660;27;20452;-71
2021/03/23 03:59:14;;;;;;;26.20;23.17;;;7.00;99.90;;;;;;5132534;27;20448;-71
2021/03/23 04:01:41;;;;;;;33.57;25.63;;;7.00;99.90;;;;;;5132989;27;20444;-71
2021/03/23 04:04:08;;;;;;;31.03;26.40;;;6.90;99.90;;;;;;5132815;27;20440;-71
2021/03/23 04:06:34;;;;;;;29.27;26.07;;;6.90;99.90;;;;;;5132536;27;20448;-71
2021/03/23 04:09:00;;;;;;;33.20;26.83;;;6.90;99.90;;;;;;5132380;27;20449;-71
2021/03/23 04:11:26;;;;;;;27.17;24.17;;;6.90;99.90;;;;;;5117831;27;20442;-71
2021/03/23 04:13:53;;;;;;;32.23;25.40;;;6.90;99.90;;;;;;5112251;28;20485;-71
2021/03/23 04:16:19;;;;;;;30.97;25.30;;;7.00;99.90;;;;;;5110920;28;20485;-72
2021/03/23 04:18:45;;;;;;;28.37;25.27;;;7.00;99.90;;;;;;5111731;28;21145;-72
2021/03/23 04:21:12;;;;;;;28.20;25.23;;;6.90;99.90;;;;;;5111798;28;20495;-72
2021/03/23 04:23:41;;;;;;;28.07;24.47;;;6.90;99.90;;;;;;5111707;28;20815;-71
2021/03/23 04:26:10;;;;;;;29.17;25.47;;;7.00;99.90;;;;;;5111817;28;20445;-71
2021/03/23 04:28:38;;;;;;;31.10;25.30;;;7.00;99.90;;;;;;5111714;28;20468;-70
2021/03/23 04:31:05;;;;;;;35.13;26.30;;;6.90;99.90;;;;;;5111405;28;20505;-70
2021/03/23 04:33:31;;;;;;;30.40;26.17;;;6.90;99.90;;;;;;5111633;28;20554;-71
2021/03/23 04:35:59;;;;;;;26.57;23.97;;;6.90;99.90;;;;;;5111582;28;20445;-71
2021/03/23 04:38:29;;;;;;;29.30;25.43;;;7.00;99.90;;;;;;5111463;28;20445;-70
2021/03/23 04:40:58;;;;;;;33.13;25.83;;;7.00;99.90;;;;;;5111457;28;20468;-72
2021/03/23 04:43:27;;;;;;;29.40;25.03;;;7.00;99.90;;;;;;5111423;28;20453;-70
2021/03/23 04:45:53;;;;;;;27.33;24.27;;;6.90;99.90;;;;;;5111381;28;20445;-70
2021/03/23 04:48:20;;;;;;;29.03;25.47;;;6.90;99.90;;;;;;5111586;28;20812;-70
2021/03/23 04:50:47;;;;;;;27.70;24.70;;;6.90;99.90;;;;;;5111313;28;20453;-70
2021/03/23 04:53:21;;;;;;;33.60;24.60;;;6.80;99.90;;;;;;5111208;28;20537;-70
2021/03/23 04:55:48;;;;;;;34.00;25.47;;;6.90;99.90;;;;;;5111237;28;20519;-70
2021/03/23 04:58:14;;;;;;;28.20;25.27;;;7.00;99.90;;;;;;5111491;28;20441;-71
2021/03/23 05:00:41;;;;;;;30.50;25.77;;;6.90;99.90;;;;;;5111045;28;20454;-70
2021/03/23 05:03:13;;;;;;;30.50;26.00;;;6.90;99.90;;;;;;5111348;28;20437;-72
2021/03/23 05:05:39;;;;;;;27.57;24.63;;;6.90;99.90;;;;;;5111207;28;20455;-72
2021/03/23 05:08:06;;;;;;;29.13;24.10;;;6.80;99.90;;;;;;5111127;28;20498;-68
2021/03/23 05:10:32;;;;;;;28.83;25.73;;;6.90;99.90;;;;;;5117666;28;20468;-71
2021/03/23 05:12:59;;;;;;;30.77;26.10;;;7.00;99.90;;;;;;5131194;27;20476;-71
2021/03/23 05:15:26;;;;;;;30.67;25.10;;;7.00;99.90;;;;;;5131754;27;20456;-72
2021/03/23 05:17:52;;;;;;;29.60;26.63;;;7.10;99.90;;;;;;5131432;28;20480;-71
2021/03/23 05:20:18;;;;;;;33.83;23.57;;;7.10;99.90;;;;;;5131252;27;20444;-72
2021/03/23 05:22:45;;;;;;;36.13;26.53;;;7.10;99.90;;;;;;5131057;28;20959;-71
2021/03/23 05:25:12;;;;;;;36.00;27.20;;;7.00;99.90;;;;;;5104339;28;20442;-70
2021/03/23 05:27:38;;;;;;;28.90;24.20;;;7.00;99.90;;;;;;5100585;28;20437;-70
2021/03/23 05:30:08;;;;;;;29.00;24.30;;;7.10;99.90;;;;;;5103564;28;20503;-70
2021/03/23 05:32:34;;;;;;;29.97;24.10;;;7.10;99.90;;;;;;5101811;28;20800;-71
2021/03/23 05:35:00;;;;;;;32.87;26.40;;;7.10;99.90;;;;;;5103247;28;20445;-71
2021/03/23 05:37:26;;;;;;;34.23;26.10;;;7.10;99.90;;;;;;5102670;28;21286;-71
2021/03/23 05:39:53;;;;;;;34.60;27.60;;;7.10;99.90;;;;;;5102086;28;20441;-71
2021/03/23 05:42:28;;;;;;;29.23;26.30;;;7.10;99.90;;;;;;5103402;28;20962;-70
2021/03/23 05:45:03;;;;;;;30.53;26.10;;;7.00;99.90;;;;;;5103613;28;20437;-70
2021/03/23 05:47:35;;;;;;;28.33;24.30;;;7.00;99.90;;;;;;5094043;28;20996;-70
2021/03/23 05:50:17;;;;;;;28.20;25.20;;;7.10;99.90;;;;;;5094184;28;20851;-71
2021/03/23 05:52:47;;;;;;;33.20;25.90;;;7.10;99.90;;;;;;5093958;28;20462;-71
2021/03/23 05:55:26;;;;;;;29.73;26.40;;;7.10;99.90;;;;;;5093961;28;20458;-71
2021/03/23 05:57:53;;;;;;;33.43;25.17;;;7.20;99.90;;;;;;5094099;28;20465;-70
2021/03/23 06:00:24;;;;;;;35.20;24.10;;;7.10;99.90;;;;;;5094025;28;20449;-71
2021/03/23 06:02:59;;;;;;;30.97;27.27;;;7.10;99.90;;;;;;5094123;28;20506;-71
2021/03/23 06:05:46;;;;;;;33.77;26.50;;;7.20;99.90;;;;;;5093896;28;20464;-71
2021/03/23 06:08:24;;;;;;;31.70;24.87;;;7.10;99.90;;;;;;5093647;28;20460;-70
2021/03/23 06:11:05;;;;;;;32.23;25.80;;;7.30;99.90;;;;;;5112298;27;20558;-71
2021/03/23 06:13:36;;;;;;;31.83;25.80;;;7.20;99.90;;;;;;5134702;27;20488;-72
2021/03/23 06:16:12;;;;;;;29.87;25.10;;;7.00;99.90;;;;;;5134404;27;20541;-72
2021/03/23 06:18:48;;;;;;;33.67;24.30;;;7.10;99.90;;;;;;5134540;27;20493;-72
2021/03/23 06:21:20;;;;;;;35.90;26.43;;;7.30;99.90;;;;;;5134621;27;20464;-72
2021/03/23 06:24:04;;;;;;;29.63;25.23;;;7.20;99.90;;;;;;5134797;27;20440;-72
2021/03/23 06:26:41;;;;;;;32.70;26.60;;;7.10;99.90;;;;;;5134733;27;20505;-72
2021/03/23 06:29:19;;;;;;;29.90;25.10;;;7.30;99.90;;;;;;5134320;27;20452;-72
2021/03/23 06:32:09;;;;;;;29.93;25.20;;;7.30;99.90;;;;;;5134636;27;20634;-72
2021/03/23 06:34:37;;;;;;;31.00;25.70;;;7.40;99.90;;;;;;5134369;27;20484;-71
2021/03/23 06:37:20;;;;;;;35.80;25.70;;;7.40;99.90;;;;;;5134180;27;20543;-71
2021/03/23 06:39:47;;;;;;;25.47;22.50;;;7.30;99.90;;;;;;5133333;27;20665;-71
2021/03/23 06:42:13;;;;;;;34.33;26.40;;;7.40;99.90;;;;;;5134064;27;20472;-72
2021/03/23 06:44:41;;;;;;;30.53;25.43;;;7.60;99.90;;;;;;5134058;27;20451;-71
2021/03/23 06:47:34;;;;;;;29.67;24.80;;;7.60;99.90;;;;;;5134280;27;20456;-71
2021/03/23 06:50:16;;;;;;;35.30;25.80;;;7.60;99.90;;;;;;5134279;27;20702;-71
2021/03/23 06:52:42;;;;;;;32.93;25.13;;;7.60;99.90;;;;;;5134016;27;20456;-72
2021/03/23 06:55:22;;;;;;;29.70;25.13;;;7.70;99.90;;;;;;5134106;27;20445;-72
2021/03/23 06:57:49;;;;;;;30.70;25.23;;;7.90;99.90;;;;;;5133452;27;20456;-71
2021/03/23 07:00:26;;;;;;;29.80;26.60;;;7.90;99.90;;;;;;5133830;27;20479;-71
2021/03/23 07:02:55;;;;;;;30.30;24.00;;;8.00;99.90;;;;;;5133900;27;20542;-72
2021/03/23 07:05:41;;;;;;;27.63;24.23;;;7.90;99.90;;;;;;5133890;27;20539;-71
2021/03/23 07:08:20;;;;;;;28.77;24.83;;;8.00;99.90;;;;;;5133819;27;20451;-72
2021/03/23 07:11:05;;;;;;;29.50;26.33;;;8.10;99.90;;;;;;5124546;27;20532;-72
2021/03/23 07:13:35;;;;;;;27.00;23.13;;;8.20;99.90;;;;;;5112876;28;20504;-72
2021/03/23 07:16:03;;;;;;;28.57;24.87;;;8.30;99.90;;;;;;5112814;28;20484;-70
2021/03/23 07:18:33;;;;;;;31.20;27.00;;;8.30;99.90;;;;;;5112744;28;20445;-71
2021/03/23 07:21:03;;;;;;;33.77;27.67;;;8.50;99.90;;;;;;5112619;28;20544;-71
2021/03/23 07:23:35;;;;;;;29.63;24.90;;;8.60;99.90;;;;;;5112904;28;20448;-71
2021/03/23 07:26:21;;;;;;;41.60;26.77;;;8.60;99.90;;;;;;5112507;28;20969;-71
2021/03/23 07:28:47;;;;;;;33.70;25.73;;;8.80;99.90;;;;;;5112604;28;20525;-70
2021/03/23 07:31:20;;;;;;;31.57;26.67;;;8.90;99.90;;;;;;5112392;28;20445;-71
2021/03/23 07:34:06;;;;;;;39.47;27.53;;;8.60;99.90;;;;;;5111852;28;20517;-68
2021/03/23 07:36:36;;;;;;;30.27;25.23;;;8.70;99.90;;;;;;5112038;28;20460;-69
2021/03/23 07:39:09;;;;;;;30.03;24.40;;;8.80;99.90;;;;;;5111760;28;20457;-69
2021/03/23 07:41:40;;;;;;;27.90;23.60;;;8.80;99.90;;;;;;5111891;28;20469;-70
2021/03/23 07:44:17;;;;;;;31.67;25.57;;;8.70;99.90;;;;;;5111975;28;20637;-69
2021/03/23 07:46:48;;;;;;;29.90;26.70;;;8.50;99.90;;;;;;5112100;28;20525;-69
2021/03/23 07:49:34;;;;;;;36.83;26.87;;;8.60;99.90;;;;;;5112115;28;20624;-69
2021/03/23 07:52:08;;;;;;;31.10;25.60;;;8.80;99.90;;;;;;5111555;28;20445;-69
2021/03/23 07:54:37;;;;;;;32.67;25.87;;;8.80;99.90;;;;;;5111966;28;20480;-69
2021/03/23 07:57:40;;;;;;;30.37;24.37;;;8.80;99.90;;;;;;5111867;28;20544;-69
2021/03/23 08:00:17;;;;;;;31.63;24.53;;;8.80;99.90;;;;;;5111754;28;20455;-69
2021/03/23 08:02:54;;;;;;;34.27;25.27;;;8.80;99.90;;;;;;5094562;28;22311;-69
2021/03/23 08:05:28;;;;;;;33.93;26.57;;;9.00;99.90;;;;;;5097828;28;20463;-70
2021/03/23 08:08:09;;;;;;;35.80;27.10;;;9.00;99.90;;;;;;5108904;28;20510;-69
2021/03/23 08:10:39;;;;;;;36.77;27.27;;;9.00;99.90;;;;;;5101905;28;20969;-69
2021/03/23 08:13:17;;;;;;;40.90;28.63;;;9.10;99.90;;;;;;5111015;28;20481;-69
2021/03/23 08:15:58;;;;;;;34.33;26.63;;;9.10;99.90;;;;;;5110961;28;20450;-69
2021/03/23 08:18:57;;;;;;;32.00;26.47;;;9.40;99.90;;;;;;5101245;28;20442;-69
2021/03/23 08:21:52;;;;;;;35.17;26.93;;;9.80;99.90;;;;;;5091058;28;20450;-70
2021/03/23 08:24:30;;;;;;;34.10;24.37;;;10.20;99.90;;;;;;5074041;28;20450;-69
2021/03/23 08:27:23;;;;;;;32.07;25.77;;;10.50;99.90;;;;;;5090628;28;20446;-69
2021/03/23 08:30:06;;;;;;;32.27;24.67;;;10.80;99.90;;;;;;5090700;28;20465;-69
2021/03/23 08:32:40;;;;;;;42.13;28.00;;;10.90;99.90;;;;;;5090551;28;20446;-69
2021/03/23 08:35:31;;;;;;;30.90;26.23;;;11.00;99.90;;;;;;5097161;28;20864;-69
2021/03/23 08:38:23;;;;;;;31.17;26.07;;;11.30;99.90;;;;;;5111075;28;20502;-69
2021/03/23 08:40:58;;;;;;;33.77;27.40;;;11.50;99.90;;;;;;5110905;28;20452;-69
2021/03/23 08:43:33;;;;;;;32.70;27.67;;;11.70;99.90;;;;;;5110704;28;20449;-70
2021/03/23 08:46:04;;;;;;;34.70;28.17;;;11.60;99.40;;;;;;5092456;28;20453;-73
2021/03/23 08:48:42;;;;;;;32.23;26.30;;;11.90;99.40;;;;;;5090294;28;20442;-73
2021/03/23 08:51:11;;;;;;;30.03;26.93;;;12.20;98.80;;;;;;5090513;28;20442;-73
2021/03/23 08:53:44;;;;;;;33.67;27.07;;;12.50;98.50;;;;;;5090106;28;20838;-72
2021/03/23 08:56:11;;;;;;;33.33;28.00;;;12.50;97.40;;;;;;5090418;28;20808;-72
2021/03/23 08:58:49;;;;;;;35.60;29.00;;;12.50;97.80;;;;;;5090483;28;20473;-72
2021/03/23 09:01:39;;;;;;;34.67;27.67;;;12.50;97.40;;;;;;5090280;28;20454;-72
2021/03/23 09:04:33;;;;;;;28.27;25.23;;;12.30;97.80;;;;;;5091844;28;20438;-73
2021/03/23 09:07:02;;;;;;;30.33;26.27;;;12.60;97.60;;;;;;5094927;28;20498;-73
2021/03/23 09:09:39;;;;;;;30.07;26.87;;;12.60;97.00;;;;;;5093189;28;20510;-73
2021/03/23 09:12:13;;;;;;;29.27;25.37;;;12.70;96.80;;;;;;5134555;27;20493;-72
2021/03/23 09:15:15;;;;;;;26.80;23.90;;;12.40;97.30;;;;;;5135722;27;20480;-73
2021/03/23 09:17:52;;;;;;;28.73;25.73;;;12.50;96.90;;;;;;5130682;27;20475;-73
2021/03/23 09:21:07;;;;;;;29.80;25.33;;;12.50;97.00;;;;;;5135594;27;20440;-74
2021/03/23 09:23:52;;;;;;;29.13;22.87;;;12.80;97.00;;;;;;5099330;27;20452;-73
2021/03/23 09:26:49;;;;;;;29.70;24.57;;;13.00;96.10;;;;;;5135464;27;20539;-73
2021/03/23 09:29:42;;;;;;;29.23;26.10;;;13.50;95.80;;;;;;5089038;27;20448;-73
2021/03/23 09:32:12;;;;;;;29.43;26.33;;;13.30;94.90;;;;;;5135777;27;20448;-72
2021/03/23 09:35:20;;;;;;;28.67;25.67;;;13.60;95.10;;;;;;5135369;27;20528;-72
2021/03/23 09:37:50;;;;;;;28.90;25.20;;;13.70;94.50;;;;;;5135028;27;20455;-72
2021/03/23 09:40:40;;;;;;;26.93;24.40;;;13.90;94.10;;;;;;5135254;27;20451;-71
2021/03/23 09:43:22;;;;;;;32.60;23.87;;;13.90;93.80;;;;;;5135088;27;20456;-72
2021/03/23 09:46:36;;;;;;;25.63;22.30;;;13.80;93.20;;;;;;5135057;27;20455;-73
2021/03/23 09:49:15;;;;;;;27.27;24.67;;;13.90;93.40;;;;;;5135056;27;20477;-73
2021/03/23 09:51:51;;;;;;;26.63;22.50;;;14.30;93.00;;;;;;5134915;27;20455;-73
2021/03/23 09:54:29;;;;;;;24.10;21.70;;;14.40;92.40;;;;;;5135036;27;20479;-73
2021/03/23 09:56:58;;;;;;;22.77;20.50;;;14.30;91.50;;;;;;5134744;27;20898;-72
2021/03/23 09:59:28;;;;;;;24.60;21.27;;;14.10;91.20;;;;;;5134822;27;20450;-72
2021/03/23 10:01:59;;;;;;;17.90;16.30;;;14.30;91.20;;;;;;5134839;27;20476;-73
2021/03/23 10:04:31;;;;;;;17.27;16.07;;;14.00;86.80;;;;;;5134722;27;20449;-72
2021/03/23 10:06:59;;;;;;;19.57;17.87;;;13.60;86.70;;;;;;5134599;27;20451;-73
2021/03/23 10:09:28;;;;;;;22.17;18.00;;;13.10;89.80;;;;;;5134760;27;20500;-72
2021/03/23 10:11:55;;;;;;;21.83;19.93;;;13.10;90.10;;;;;;5114289;27;20444;-73
2021/03/23 10:14:34;;;;;;;20.77;18.70;;;13.30;90.50;;;;;;5112751;28;20534;-73
2021/03/23 10:17:14;;;;;;;21.07;18.93;;;13.50;90.30;;;;;;5113714;28;20483;-73
2021/03/23 10:19:44;;;;;;;19.87;18.17;;;13.70;89.70;;;;;;5113887;28;20445;-73
2021/03/23 10:22:14;;;;;;;19.00;17.30;;;13.50;88.80;;;;;;5113920;28;20787;-73
2021/03/23 10:24:43;;;;;;;20.10;18.50;;;13.80;89.80;;;;;;5113959;28;20857;-73
2021/03/23 10:27:16;;;;;;;18.77;17.17;;;13.90;88.30;;;;;;5113875;28;20445;-73
2021/03/23 10:29:55;;;;;;;21.20;18.57;;;13.40;87.70;;;;;;5113743;28;20510;-73
2021/03/23 10:32:42;;;;;;;19.43;17.83;;;12.80;89.60;;;;;;5113651;28;20506;-73
2021/03/23 10:35:16;;;;;;;21.30;18.83;;;12.40;91.00;;;;;;5113766;28;20481;-73
2021/03/23 10:37:42;;;;;;;19.00;17.20;;;12.10;91.70;;;;;;5113494;28;20943;-73
2021/03/23 10:40:30;;;;;;;20.07;17.77;;;12.40;91.70;;;;;;5113412;28;21012;-73
2021/03/23 10:42:56;;;;;;;16.87;15.10;;;12.50;91.50;;;;;;5113236;28;20466;-73
2021/03/23 10:45:27;;;;;;;17.43;16.03;;;12.50;90.80;;;;;;5113711;28;20449;-73
2021/03/23 10:48:07;;;;;;;17.37;15.87;;;12.20;90.40;;;;;;5113607;28;20473;-73
2021/03/23 10:50:35;;;;;;;25.63;17.40;;;12.20;90.50;;;;;;5113263;28;20445;-73
2021/03/23 10:53:17;;;;;;;18.50;16.80;;;11.60;91.60;;;;;;5113242;28;20683;-73
2021/03/23 10:55:44;;;;;;;18.97;17.17;;;11.70;92.00;;;;;;5113258;28;20935;-72
2021/03/23 10:58:23;;;;;;;21.87;17.30;;;11.70;91.90;;;;;;5113177;28;20449;-73
2021/03/23 11:01:09;;;;;;;18.00;16.30;;;11.90;91.50;;;;;;5113210;28;20945;-72
2021/03/23 11:03:36;;;;;;;15.87;14.57;;;11.70;91.30;;;;;;5113205;28;20939;-73
2021/03/23 11:06:04;;;;;;;18.57;16.27;;;11.30;91.40;;;;;;5112988;28;20918;-72
2021/03/23 11:08:31;;;;;;;17.47;15.80;;;11.00;91.90;;;;;;5112886;28;21154;-73
2021/03/23 11:10:58;;;;;;;16.80;15.10;;;10.80;92.10;;;;;;5122973;27;20803;-73
2021/03/23 11:13:25;;;;;;;16.10;14.63;;;10.60;92.60;;;;;;5133387;27;20540;-72
2021/03/23 11:15:54;;;;;;;17.23;15.07;;;10.90;92.80;;;;;;5133312;27;20538;-73
2021/03/23 11:18:28;;;;;;;16.87;15.47;;;10.80;92.60;;;;;;5133543;27;20497;-73
2021/03/23 11:20:56;;;;;;;14.30;13.03;;;10.90;92.30;;;;;;5133442;27;20882;-73
2021/03/23 11:23:31;;;;;;;14.33;13.33;;;11.20;92.00;;;;;;5133446;27;20994;-73
2021/03/23 11:25:58;;;;;;;15.43;14.43;;;11.50;91.40;;;;;;5132691;27;20465;-72
2021/03/23 11:28:25;;;;;;;15.27;14.07;;;11.70;90.50;;;;;;5132626;27;20459;-73
2021/03/23 11:30:51;;;;;;;13.23;11.97;;;11.90;90.20;;;;;;5133258;27;20449;-73
2021/03/23 11:33:17;;;;;;;16.67;15.17;;;11.80;90.30;;;;;;5133051;27;20539;-74
2021/03/23 11:35:46;;;;;;;13.60;12.70;;;11.60;90.10;;;;;;5133235;27;20445;-73
2021/03/23 11:38:13;;;;;;;13.80;12.90;;;11.80;88.90;;;;;;5133483;27;20448;-73
2021/03/23 11:40:39;;;;;;;14.73;13.23;;;11.90;88.30;;;;;;5133098;27;20451;-73
2021/03/23 11:43:06;;;;;;;13.03;12.17;;;11.80;88.70;;;;;;5121502;27;20469;-73
2021/03/23 11:45:35;;;;;;;14.97;13.47;;;12.00;88.40;;;;;;5103507;28;20449;-73
2021/03/23 11:48:06;;;;;;;14.67;13.47;;;12.00;87.70;;;;;;5100179;27;20880;-73
2021/03/23 11:50:34;;;;;;;13.97;12.87;;;12.20;87.30;;;;;;5092338;28;20502;-73
2021/03/23 11:53:01;;;;;;;13.90;12.67;;;12.50;86.80;;;;;;5110455;28;20931;-71
2021/03/23 11:55:32;;;;;;;17.50;14.50;;;12.80;85.60;;;;;;5112474;28;20450;-73
2021/03/23 11:57:59;;;;;;;18.00;14.23;;;12.40;86.40;;;;;;5112268;28;20989;-72
2021/03/23 12:00:29;;;;;;;14.10;12.90;;;12.20;87.00;;;;;;5103349;28;20526;-73
2021/03/23 12:02:55;;;;;;;14.60;13.20;;;11.90;87.10;;;;;;5091969;28;20541;-73
2021/03/23 12:05:23;;;;;;;13.60;12.50;;;11.90;88.30;;;;;;5091861;28;20442;-73
2021/03/23 12:08:19;;;;;;;15.03;13.93;;;12.00;88.00;;;;;;5091843;28;20515;-73
2021/03/23 12:10:52;;;;;;;14.77;13.67;;;12.30;86.70;;;;;;5089566;28;20458;-73
2021/03/23 12:13:25;;;;;;;14.43;13.23;;;12.10;86.80;;;;;;5111976;28;20808;-73
2021/03/23 12:15:58;;;;;;;15.10;13.80;;;12.00;88.10;;;;;;5111893;28;20477;-73
2021/03/23 12:18:25;;;;;;;14.50;13.17;;;12.20;88.40;;;;;;5109799;28;20460;-73
2021/03/23 12:20:57;;;;;;;15.03;13.93;;;12.40;87.10;;;;;;5112059;28;20453;-73
2021/03/23 12:23:24;;;;;;;16.40;15.27;;;12.60;85.80;;;;;;5111990;28;20741;-73
2021/03/23 12:25:53;;;;;;;17.70;16.30;;;12.50;85.80;;;;;;5111755;28;20959;-73
2021/03/23 12:28:19;;;;;;;15.87;14.67;;;12.40;86.40;;;;;;5111750;28;20460;-73
2021/03/23 12:30:46;;;;;;;16.67;15.27;;;12.50;86.00;;;;;;5111787;28;20441;-73
2021/03/23 12:33:12;;;;;;;15.70;14.63;;;12.20;85.90;;;;;;5111618;28;20434;-72
2021/03/23 12:35:38;;;;;;;18.23;16.50;;;12.20;87.10;;;;;;5111877;28;20450;-73
2021/03/23 12:38:07;;;;;;;20.10;18.00;;;11.90;88.80;;;;;;5111085;28;20445;-72
2021/03/23 12:40:34;;;;;;;22.57;20.37;;;11.80;90.30;;;;;;5111464;28;20457;-72
2021/03/23 12:43:01;;;;;;;21.33;18.60;;;11.60;91.20;;;;;;5111519;28;20449;-72
2021/03/23 12:45:32;;;;;;;20.13;18.30;;;11.50;91.80;;;;;;5111526;28;20482;-72
2021/03/23 12:47:59;;;;;;;20.80;18.20;;;11.50;92.10;;;;;;5111464;28;20456;-73
2021/03/23 12:50:25;;;;;;;21.40;19.10;;;11.60;91.90;;;;;;5111530;28;20445;-72
2021/03/23 12:52:53;;;;;;;18.87;17.23;;;12.00;91.70;;;;;;5111108;28;20449;-73
2021/03/23 12:55:21;;;;;;;21.20;19.13;;;11.90;91.00;;;;;;5111135;28;20480;-73